TimeCST,TemperatureF,Dew PointF,Humidity,Sea Level PressureIn,VisibilityMPH,Wind Direction,Wind SpeedMPH,Gust SpeedMPH,PrecipitationIn,Events,Conditions,WindDirDegrees,DateUTC
12:15 AM,8.1,5.4,89,30.26,10.0,Calm,Calm,-,N/A,,Clear,0,2013-01-02 06:15:00
12:35 AM,8.1,5.4,89,30.24,10.0,Calm,Calm,-,N/A,,Clear,0,2013-01-02 06:35:00
12:55 AM,8.4,5.9,89,30.23,7.0,Calm,Calm,-,N/A,,Clear,0,2013-01-02 06:55:00
1:15 AM,8.6,5.9,89,30.24,10.0,Calm,Calm,-,N/A,,Clear,0,2013-01-02 07:15:00
1:35 AM,8.6,6.1,89,30.25,10.0,Calm,Calm,-,N/A,,Clear,0,2013-01-02 07:35:00
1:55 AM,7.5,4.5,87,30.24,10.0,Calm,Calm,-,N/A,,Clear,0,2013-01-02 07:55:00
2:15 AM,7.0,3.7,87,30.25,10.0,Calm,Calm,-,N/A,,Clear,0,2013-01-02 08:15:00
2:35 AM,6.1,2.8,87,30.25,10.0,Calm,Calm,-,N/A,,Clear,0,2013-01-02 08:35:00
2:55 AM,6.3,3.2,87,30.24,10.0,South,3.5,-,N/A,,Clear,170,2013-01-02 08:55:00
3:15 AM,6.8,3.6,87,30.23,10.0,Calm,Calm,-,N/A,,Clear,0,2013-01-02 09:15:00
3:35 AM,7.2,4.1,87,30.23,10.0,Calm,Calm,-,N/A,,Clear,0,2013-01-02 09:35:00
3:55 AM,6.8,3.4,86,30.23,10.0,South,5.8,-,N/A,,Clear,170,2013-01-02 09:55:00
4:15 AM,6.1,2.8,87,30.23,10.0,South,4.6,-,N/A,,Clear,170,2013-01-02 10:15:00
4:35 AM,6.4,3.4,87,30.23,10.0,Calm,Calm,-,N/A,,Clear,0,2013-01-02 10:35:00
4:55 AM,6.1,2.8,87,30.23,10.0,South,3.5,-,N/A,,Clear,190,2013-01-02 10:55:00
5:15 AM,6.8,3.6,87,30.23,10.0,Calm,Calm,-,N/A,,Clear,0,2013-01-02 11:15:00
5:35 AM,7.5,4.5,87,30.23,10.0,South,4.6,-,N/A,,Clear,170,2013-01-02 11:35:00
5:55 AM,7.0,3.6,86,30.23,10.0,South,5.8,-,N/A,,Clear,170,2013-01-02 11:55:00
6:15 AM,8.1,4.8,87,30.22,10.0,South,6.9,-,N/A,,Clear,170,2013-01-02 12:15:00
6:35 AM,8.1,4.8,87,30.22,10.0,South,5.8,-,N/A,,Clear,170,2013-01-02 12:35:00
6:55 AM,8.8,5.7,87,30.22,10.0,SSE,4.6,-,N/A,,Clear,160,2013-01-02 12:55:00
7:15 AM,9.5,6.4,87,30.21,10.0,SSE,4.6,-,N/A,,Clear,150,2013-01-02 13:15:00
7:35 AM,9.9,6.8,87,30.23,10.0,South,3.5,-,N/A,,Clear,170,2013-01-02 13:35:00
7:55 AM,10.2,7.2,87,30.22,10.0,SSE,6.9,-,N/A,,Clear,150,2013-01-02 13:55:00
8:15 AM,10.8,7.9,88,30.22,10.0,SSE,8.1,-,N/A,,Clear,160,2013-01-02 14:15:00
8:35 AM,11.8,9.0,88,30.21,10.0,SSE,6.9,-,N/A,,Clear,160,2013-01-02 14:35:00
8:55 AM,12.9,10.0,88,30.21,10.0,SSE,4.6,-,N/A,,Clear,150,2013-01-02 14:55:00
9:15 AM,14.0,11.1,88,30.21,10.0,South,4.6,-,N/A,,Clear,170,2013-01-02 15:15:00
9:35 AM,15.3,12.0,87,30.22,10.0,South,4.6,-,N/A,,Clear,170,2013-01-02 15:35:00
9:55 AM,16.5,12.0,82,30.23,10.0,South,3.5,-,N/A,,Clear,190,2013-01-02 15:55:00
10:15 AM,18.0,12.4,79,30.23,10.0,SSE,5.8,-,N/A,,Clear,160,2013-01-02 16:15:00
10:35 AM,19.6,13.3,77,30.23,10.0,Calm,Calm,-,N/A,,Clear,0,2013-01-02 16:35:00
10:55 AM,22.3,13.3,68,30.22,10.0,SSW,5.8,-,N/A,,Clear,200,2013-01-02 16:55:00
11:15 AM,24.3,12.7,62,30.21,10.0,SSW,3.5,-,N/A,,Clear,210,2013-01-02 17:15:00
11:35 AM,25.5,12.6,58,30.20,10.0,Calm,Calm,-,N/A,,Clear,0,2013-01-02 17:35:00
11:55 AM,27.3,13.1,55,30.19,10.0,SSW,4.6,-,N/A,,Clear,200,2013-01-02 17:55:00
12:15 PM,28.6,13.8,54,30.18,10.0,SSW,4.6,-,N/A,,Clear,200,2013-01-02 18:15:00
12:35 PM,29.7,13.8,52,30.17,10.0,South,8.1,-,N/A,,Clear,190,2013-01-02 18:35:00
12:55 PM,30.7,14.4,51,30.16,10.0,South,5.8,-,N/A,,Clear,170,2013-01-02 18:55:00
1:15 PM,31.6,14.9,50,30.16,10.0,South,6.9,-,N/A,,Clear,190,2013-01-02 19:15:00
1:35 PM,32.0,14.5,49,30.15,10.0,South,4.6,-,N/A,,Clear,190,2013-01-02 19:35:00
1:55 PM,32.0,15.6,51,30.14,10.0,South,6.9,-,N/A,,Clear,190,2013-01-02 19:55:00
2:15 PM,32.2,17.1,54,30.14,10.0,South,6.9,-,N/A,,Clear,170,2013-01-02 20:15:00
2:35 PM,32.2,17.2,54,30.14,10.0,South,8.1,-,N/A,,Clear,170,2013-01-02 20:35:00
2:55 PM,32.7,16.9,52,30.14,10.0,South,6.9,-,N/A,,Clear,190,2013-01-02 20:55:00
3:15 PM,33.3,16.7,51,30.14,10.0,South,5.8,-,N/A,,Clear,190,2013-01-02 21:15:00
3:35 PM,33.4,16.9,51,30.15,10.0,SW,4.6,-,N/A,,Clear,220,2013-01-02 21:35:00
3:55 PM,33.6,16.3,49,30.15,10.0,SSW,6.9,-,N/A,,Clear,210,2013-01-02 21:55:00
4:15 PM,33.6,16.2,49,30.14,10.0,SSW,5.8,-,N/A,,Clear,210,2013-01-02 22:15:00
4:35 PM,32.5,17.1,53,30.15,10.0,South,4.6,-,N/A,,Clear,180,2013-01-02 22:35:00
4:55 PM,31.8,16.5,53,30.15,10.0,Calm,Calm,-,N/A,,Clear,0,2013-01-02 22:55:00
5:15 PM,31.1,16.3,54,30.15,10.0,SSW,5.8,-,N/A,,Clear,200,2013-01-02 23:15:00
5:35 PM,30.6,16.5,56,30.15,10.0,Calm,Calm,-,N/A,,Clear,0,2013-01-02 23:35:00
5:55 PM,30.0,16.5,57,30.16,10.0,Calm,Calm,-,N/A,,Clear,0,2013-01-02 23:55:00
6:55 PM,27.7,17.1,64,30.18,10.0,Calm,Calm,-,N/A,,Clear,0,2013-01-03 00:55:00
7:15 PM,27.3,16.9,65,30.18,10.0,Calm,Calm,-,N/A,,Clear,0,2013-01-03 01:15:00
7:35 PM,27.0,16.7,65,30.18,10.0,Calm,Calm,-,N/A,,Mostly Cloudy,0,2013-01-03 01:35:00
7:55 PM,26.4,17.1,68,30.19,10.0,South,3.5,-,N/A,,Overcast,180,2013-01-03 01:55:00
8:15 PM,26.6,17.4,68,30.19,10.0,Calm,Calm,-,N/A,,Overcast,0,2013-01-03 02:15:00
8:35 PM,26.6,17.8,69,30.19,10.0,SW,3.5,-,N/A,,Mostly Cloudy,220,2013-01-03 02:35:00
8:55 PM,27.1,18.3,69,30.20,10.0,SW,3.5,-,N/A,,Mostly Cloudy,230,2013-01-03 02:55:00
9:15 PM,26.8,18.7,72,30.20,10.0,SSW,3.5,-,N/A,,Scattered Clouds,210,2013-01-03 03:15:00
9:35 PM,26.1,18.7,74,30.20,10.0,Calm,Calm,-,N/A,,Mostly Cloudy,0,2013-01-03 03:35:00
9:55 PM,26.1,19.0,75,30.22,10.0,Calm,Calm,-,N/A,,Mostly Cloudy,0,2013-01-03 03:55:00
10:15 PM,26.4,19.8,76,30.22,10.0,WSW,4.6,-,N/A,,Scattered Clouds,250,2013-01-03 04:15:00
10:35 PM,27.3,21.4,78,30.22,10.0,WSW,3.5,-,N/A,,Overcast,240,2013-01-03 04:35:00
10:55 PM,27.1,21.4,79,30.23,10.0,WSW,3.5,-,N/A,,Overcast,240,2013-01-03 04:55:00
11:15 PM,27.0,21.6,80,30.23,10.0,West,4.6,-,N/A,,Overcast,260,2013-01-03 05:15:00
11:35 PM,27.5,22.1,80,30.23,10.0,West,5.8,-,N/A,,Scattered Clouds,270,2013-01-03 05:35:00
11:55 PM,27.1,21.9,81,30.23,10.0,West,3.5,-,N/A,,Clear,260,2013-01-03 05:55:00